sensor_id;sensor_type;location;lat;lon;timestamp;pressure;altitude;pressure_sealevel;temperature;humidity
5905;BME280;2978;42.012;24.880;2023-05-11T00:00:38;99244.47;;;10.92;85.26
5905;BME280;2978;42.012;24.880;2023-05-11T00:03:03;99255.00;;;11.05;85.19
5905;BME280;2978;42.012;24.880;2023-05-11T00:05:29;99242.13;;;11.10;84.93
5905;BME280;2978;42.012;24.880;2023-05-11T00:07:54;99258.28;;;11.02;85.35
5905;BME280;2978;42.012;24.880;2023-05-11T00:10:20;99246.66;;;10.95;85.62
5905;BME280;2978;42.012;24.880;2023-05-11T00:12:45;99261.72;;;10.77;86.29
5905;BME280;2978;42.012;24.880;2023-05-11T00:15:11;99256.97;;;10.73;86.67
5905;BME280;2978;42.012;24.880;2023-05-11T00:17:37;99252.78;;;10.65;87.49
5905;BME280;2978;42.012;24.880;2023-05-11T00:20:03;99248.69;;;10.68;87.93
5905;BME280;2978;42.012;24.880;2023-05-11T00:22:28;99259.97;;;10.66;87.97
5905;BME280;2978;42.012;24.880;2023-05-11T00:24:54;99255.00;;;10.63;88.19
5905;BME280;2978;42.012;24.880;2023-05-11T00:27:19;99246.78;;;10.68;88.66
5905;BME280;2978;42.012;24.880;2023-05-11T00:29:45;99259.44;;;10.69;88.28
5905;BME280;2978;42.012;24.880;2023-05-11T00:32:10;99259.41;;;10.64;88.26
5905;BME280;2978;42.012;24.880;2023-05-11T00:34:36;99256.31;;;10.56;88.92
5905;BME280;2978;42.012;24.880;2023-05-11T00:37:01;99251.69;;;10.61;88.86
5905;BME280;2978;42.012;24.880;2023-05-11T00:39:27;99256.59;;;10.59;88.50
5905;BME280;2978;42.012;24.880;2023-05-11T00:41:52;99258.25;;;10.60;88.54
5905;BME280;2978;42.012;24.880;2023-05-11T00:44:18;99263.78;;;10.65;88.92
5905;BME280;2978;42.012;24.880;2023-05-11T00:46:43;99265.53;;;10.76;88.06
5905;BME280;2978;42.012;24.880;2023-05-11T00:49:09;99265.56;;;10.81;87.74
5905;BME280;2978;42.012;24.880;2023-05-11T00:51:35;99266.03;;;10.68;87.90
5905;BME280;2978;42.012;24.880;2023-05-11T00:54:01;99260.50;;;10.63;88.41
5905;BME280;2978;42.012;24.880;2023-05-11T00:56:27;99265.50;;;10.71;88.45
5905;BME280;2978;42.012;24.880;2023-05-11T00:58:52;99258.28;;;10.65;88.33
5905;BME280;2978;42.012;24.880;2023-05-11T01:01:18;99262.72;;;10.66;88.45
5905;BME280;2978;42.012;24.880;2023-05-11T01:03:44;99264.03;;;10.59;88.80
5905;BME280;2978;42.012;24.880;2023-05-11T01:09:03;99249.81;;;10.35;89.73
5905;BME280;2978;42.012;24.880;2023-05-11T01:11:36;99253.38;;;10.36;90.56
5905;BME280;2978;42.012;24.880;2023-05-11T01:16:36;99252.13;;;10.48;90.87
5905;BME280;2978;42.012;24.880;2023-05-11T01:19:18;99241.41;;;10.52;90.54
5905;BME280;2978;42.012;24.880;2023-05-11T01:21:49;99256.81;;;10.48;89.82
5905;BME280;2978;42.012;24.880;2023-05-11T01:32:32;99260.88;;;10.77;88.35
5905;BME280;2978;42.012;24.880;2023-05-11T01:35:07;99258.38;;;10.75;88.35
5905;BME280;2978;42.012;24.880;2023-05-11T01:37:34;99260.09;;;10.86;88.43
5905;BME280;2978;42.012;24.880;2023-05-11T01:40:04;99260.69;;;10.93;87.59
5905;BME280;2978;42.012;24.880;2023-05-11T01:42:37;99260.69;;;10.93;87.26
5905;BME280;2978;42.012;24.880;2023-05-11T01:45:06;99250.09;;;10.70;87.97
5905;BME280;2978;42.012;24.880;2023-05-11T01:47:33;99264.47;;;10.77;88.36
5905;BME280;2978;42.012;24.880;2023-05-11T01:50:01;99258.38;;;10.75;89.07
5905;BME280;2978;42.012;24.880;2023-05-11T01:52:29;99268.34;;;10.86;88.85
5905;BME280;2978;42.012;24.880;2023-05-11T01:54:56;99270.63;;;10.94;88.50
5905;BME280;2978;42.012;24.880;2023-05-11T01:57:24;99261.28;;;11.00;88.26
5905;BME280;2978;42.012;24.880;2023-05-11T01:59:51;99268.50;;;11.06;87.79
5905;BME280;2978;42.012;24.880;2023-05-11T02:02:17;99262.97;;;11.01;87.96
5905;BME280;2978;42.012;24.880;2023-05-11T02:04:44;99256.34;;;10.97;86.99
5905;BME280;2978;42.012;24.880;2023-05-11T02:07:11;99259.09;;;11.02;87.14
5905;BME280;2978;42.012;24.880;2023-05-11T02:09:38;99265.47;;;11.08;87.58
5905;BME280;2978;42.012;24.880;2023-05-11T02:12:05;99258.88;;;11.09;87.52
5905;BME280;2978;42.012;24.880;2023-05-11T02:14:33;99265.22;;;11.09;87.49
5905;BME280;2978;42.012;24.880;2023-05-11T02:17:01;99266.06;;;11.10;87.62
5905;BME280;2978;42.012;24.880;2023-05-11T02:19:29;99261.97;;;11.17;87.02
5905;BME280;2978;42.012;24.880;2023-05-11T02:21:56;99258.66;;;11.15;86.91
5905;BME280;2978;42.012;24.880;2023-05-11T02:24:23;99257.53;;;11.11;86.57
5905;BME280;2978;42.012;24.880;2023-05-11T02:26:50;99253.06;;;11.05;86.98
5905;BME280;2978;42.012;24.880;2023-05-11T02:29:16;99264.06;;;11.05;86.93
5905;BME280;2978;42.012;24.880;2023-05-11T02:31:43;99251.44;;;11.04;86.94
5905;BME280;2978;42.012;24.880;2023-05-11T02:34:16;99251.66;;;10.98;87.09
5905;BME280;2978;42.012;24.880;2023-05-11T02:36:48;99264.34;;;11.04;86.68
5905;BME280;2978;42.012;24.880;2023-05-11T02:39:18;99264.63;;;11.02;86.41
5905;BME280;2978;42.012;24.880;2023-05-11T02:41:55;99262.97;;;11.01;86.74
5905;BME280;2978;42.012;24.880;2023-05-11T02:44:26;99270.66;;;10.99;86.60
5905;BME280;2978;42.012;24.880;2023-05-11T02:46:53;99268.13;;;10.88;87.55
5905;BME280;2978;42.012;24.880;2023-05-11T02:49:21;99272.00;;;10.97;87.58
5905;BME280;2978;42.012;24.880;2023-05-11T02:51:48;99265.94;;;10.95;87.39
5905;BME280;2978;42.012;24.880;2023-05-11T02:54:15;99258.50;;;10.95;88.02
5905;BME280;2978;42.012;24.880;2023-05-11T02:56:42;99266.72;;;10.85;88.29
5905;BME280;2978;42.012;24.880;2023-05-11T02:59:07;99269.38;;;10.75;89.09
5905;BME280;2978;42.012;24.880;2023-05-11T03:01:34;99274.28;;;10.68;89.84
5905;BME280;2978;42.012;24.880;2023-05-11T03:04:03;99275.28;;;10.57;90.39
5905;BME280;2978;42.012;24.880;2023-05-11T03:06:28;99279.75;;;10.63;90.85
5905;BME280;2978;42.012;24.880;2023-05-11T03:08:55;99284.06;;;10.54;90.75
5905;BME280;2978;42.012;24.880;2023-05-11T03:11:22;99280.28;;;10.65;91.17
5905;BME280;2978;42.012;24.880;2023-05-11T03:13:48;99284.97;;;10.65;90.72
5905;BME280;2978;42.012;24.880;2023-05-11T03:16:15;99289.69;;;10.69;91.22
5905;BME280;2978;42.012;24.880;2023-05-11T03:18:42;99292.38;;;10.64;90.87
5905;BME280;2978;42.012;24.880;2023-05-11T03:21:08;99280.25;;;10.60;91.14
5905;BME280;2978;42.012;24.880;2023-05-11T03:23:34;99288.75;;;10.59;91.55
5905;BME280;2978;42.012;24.880;2023-05-11T03:26:01;99284.59;;;10.51;91.97
5905;BME280;2978;42.012;24.880;2023-05-11T03:28:29;99277.47;;;10.55;92.50
5905;BME280;2978;42.012;24.880;2023-05-11T03:30:55;99280.78;;;10.57;92.62
5905;BME280;2978;42.012;24.880;2023-05-11T03:33:21;99289.91;;;10.63;92.48
5905;BME280;2978;42.012;24.880;2023-05-11T03:35:48;99285.44;;;10.57;92.62
5905;BME280;2978;42.012;24.880;2023-05-11T03:38:15;99291.44;;;10.49;93.36
5905;BME280;2978;42.012;24.880;2023-05-11T03:40:42;99291.44;;;10.49;93.34
5905;BME280;2978;42.012;24.880;2023-05-11T03:43:11;99290.09;;;10.51;94.02
5905;BME280;2978;42.012;24.880;2023-05-11T03:45:41;99289.56;;;10.54;93.99
5905;BME280;2978;42.012;24.880;2023-05-11T03:48:07;99289.97;;;10.73;93.93
5905;BME280;2978;42.012;24.880;2023-05-11T03:50:34;99298.63;;;10.91;92.89
5905;BME280;2978;42.012;24.880;2023-05-11T03:53:00;99290.44;;;10.96;91.81
5905;BME280;2978;42.012;24.880;2023-05-11T03:55:26;99301.53;;;11.06;91.53
5905;BME280;2978;42.012;24.880;2023-05-11T03:57:52;99292.25;;;11.17;91.07
5905;BME280;2978;42.012;24.880;2023-05-11T04:00:17;99291.97;;;11.19;90.30
5905;BME280;2978;42.012;24.880;2023-05-11T04:02:43;99293.91;;;11.23;89.57
5905;BME280;2978;42.012;24.880;2023-05-11T04:05:10;99300.00;;;11.25;89.67
5905;BME280;2978;42.012;24.880;2023-05-11T04:07:36;99295.94;;;11.38;89.29
5905;BME280;2978;42.012;24.880;2023-05-11T04:10:03;99296.28;;;11.52;88.53
5905;BME280;2978;42.012;24.880;2023-05-11T04:12:29;99296.59;;;11.60;88.05
5905;BME280;2978;42.012;24.880;2023-05-11T04:14:55;99301.91;;;11.72;87.03
5905;BME280;2978;42.012;24.880;2023-05-11T04:17:20;99296.38;;;11.72;87.14
5905;BME280;2978;42.012;24.880;2023-05-11T04:19:45;99295.00;;;11.69;86.54
5905;BME280;2978;42.012;24.880;2023-05-11T04:22:11;99289.25;;;11.76;85.77
5905;BME280;2978;42.012;24.880;2023-05-11T04:24:37;99307.97;;;11.79;86.32
5905;BME280;2978;42.012;24.880;2023-05-11T04:27:02;99307.53;;;12.02;85.55
5905;BME280;2978;42.012;24.880;2023-05-11T04:29:29;99311.97;;;12.13;84.56
5905;BME280;2978;42.012;24.880;2023-05-11T04:31:54;99309.22;;;12.23;83.99
5905;BME280;2978;42.012;24.880;2023-05-11T04:34:20;99315.31;;;12.35;83.45
5905;BME280;2978;42.012;24.880;2023-05-11T04:36:49;99307.88;;;12.25;83.69
5905;BME280;2978;42.012;24.880;2023-05-11T04:39:15;99304.84;;;12.22;83.11
5905;BME280;2978;42.012;24.880;2023-05-11T04:41:44;99298.22;;;12.23;84.13
5905;BME280;2978;42.012;24.880;2023-05-11T04:44:10;99302.09;;;12.37;83.26
5905;BME280;2978;42.012;24.880;2023-05-11T04:46:36;99312.56;;;12.45;82.80
5905;BME280;2978;42.012;24.880;2023-05-11T04:49:03;99305.41;;;12.54;81.24
5905;BME280;2978;42.012;24.880;2023-05-11T04:51:29;99306.00;;;12.81;80.24
5905;BME280;2978;42.012;24.880;2023-05-11T04:53:55;99318.97;;;12.76;79.55
5905;BME280;2978;42.012;24.880;2023-05-11T04:56:20;99315.66;;;12.64;79.42
5905;BME280;2978;42.012;24.880;2023-05-11T04:58:46;99313.13;;;12.32;81.25
5905;BME280;2978;42.012;24.880;2023-05-11T05:01:11;99315.31;;;12.20;81.78
5905;BME280;2978;42.012;24.880;2023-05-11T05:03:37;99312.84;;;12.54;81.21
5905;BME280;2978;42.012;24.880;2023-05-11T05:06:02;99318.69;;;12.72;80.54
5905;BME280;2978;42.012;24.880;2023-05-11T05:08:28;99319.50;;;12.63;80.15
5905;BME280;2978;42.012;24.880;2023-05-11T05:10:53;99317.84;;;12.67;79.89
5905;BME280;2978;42.012;24.880;2023-05-11T05:13:19;99309.84;;;12.70;80.15
5905;BME280;2978;42.012;24.880;2023-05-11T05:15:44;99310.13;;;12.74;79.76
5905;BME280;2978;42.012;24.880;2023-05-11T05:18:10;99309.03;;;13.15;79.32
5905;BME280;2978;42.012;24.880;2023-05-11T05:20:35;99314.16;;;13.62;77.41
5905;BME280;2978;42.012;24.880;2023-05-11T05:23:01;99314.06;;;13.87;75.65
5905;BME280;2978;42.012;24.880;2023-05-11T05:25:26;99311.34;;;13.82;75.69
5905;BME280;2978;42.012;24.880;2023-05-11T05:27:52;99322.44;;;13.72;75.15
5905;BME280;2978;42.012;24.880;2023-05-11T05:30:17;99329.03;;;13.76;75.51
5905;BME280;2978;42.012;24.880;2023-05-11T05:32:43;99329.41;;;13.54;76.88
5905;BME280;2978;42.012;24.880;2023-05-11T05:35:08;99327.19;;;13.41;75.96
5905;BME280;2978;42.012;24.880;2023-05-11T05:37:34;99319.25;;;13.19;76.84
5905;BME280;2978;42.012;24.880;2023-05-11T05:40:01;99327.25;;;13.16;77.03
5905;BME280;2978;42.012;24.880;2023-05-11T05:42:27;99332.72;;;13.41;76.40
5905;BME280;2978;42.012;24.880;2023-05-11T07:56:34;99310.50;;;16.54;59.75
5905;BME280;2978;42.012;24.880;2023-05-11T07:59:00;99309.88;;;16.57;58.52
5905;BME280;2978;42.012;24.880;2023-05-11T08:01:25;99307.63;;;16.59;58.97
5905;BME280;2978;42.012;24.880;2023-05-11T08:03:51;99314.16;;;16.68;58.49
5905;BME280;2978;42.012;24.880;2023-05-11T08:06:16;99325.06;;;16.41;59.32
5905;BME280;2978;42.012;24.880;2023-05-11T08:08:42;99320.59;;;16.03;58.72
5905;BME280;2978;42.012;24.880;2023-05-11T08:11:07;99329.44;;;16.05;59.95
5905;BME280;2978;42.012;24.880;2023-05-11T08:13:33;99314.91;;;16.13;60.12
5905;BME280;2978;42.012;24.880;2023-05-11T08:15:58;99318.91;;;16.25;59.78
5905;BME280;2978;42.012;24.880;2023-05-11T08:18:24;99318.50;;;16.55;59.15
5905;BME280;2978;42.012;24.880;2023-05-11T08:20:49;99331.34;;;16.70;58.06
5905;BME280;2978;42.012;24.880;2023-05-11T08:23:15;99338.09;;;16.64;57.92
5905;BME280;2978;42.012;24.880;2023-05-11T08:25:53;99321.34;;;16.88;56.92
5905;BME280;2978;42.012;24.880;2023-05-11T08:28:19;99327.75;;;17.02;56.63
5905;BME280;2978;42.012;24.880;2023-05-11T08:30:45;99325.03;;;16.83;56.51
5905;BME280;2978;42.012;24.880;2023-05-11T08:33:11;99319.66;;;17.05;55.27
5905;BME280;2978;42.012;24.880;2023-05-11T08:35:38;99311.00;;;16.74;56.65
5905;BME280;2978;42.012;24.880;2023-05-11T08:38:03;99316.41;;;16.66;56.39
5905;BME280;2978;42.012;24.880;2023-05-11T08:40:29;99316.59;;;16.88;56.64
5905;BME280;2978;42.012;24.880;2023-05-11T08:42:55;99307.34;;;17.11;56.36
5905;BME280;2978;42.012;24.880;2023-05-11T08:45:21;99320.03;;;17.17;56.06
5905;BME280;2978;42.012;24.880;2023-05-11T08:47:48;99308.63;;;17.32;56.06
5905;BME280;2978;42.012;24.880;2023-05-11T08:50:13;99304.38;;;17.53;55.83
5905;BME280;2978;42.012;24.880;2023-05-11T08:52:39;99300.13;;;17.56;54.16
5905;BME280;2978;42.012;24.880;2023-05-11T08:55:06;99306.53;;;17.56;53.92
5905;BME280;2978;42.012;24.880;2023-05-11T08:57:33;99304.91;;;17.69;54.08
5905;BME280;2978;42.012;24.880;2023-05-11T09:00:00;99305.09;;;17.72;54.21
5905;BME280;2978;42.012;24.880;2023-05-11T09:02:27;99306.31;;;17.66;55.16
5905;BME280;2978;42.012;24.880;2023-05-11T09:04:53;99304.38;;;17.53;54.88
5905;BME280;2978;42.012;24.880;2023-05-11T09:07:19;99304.47;;;17.48;55.47
5905;BME280;2978;42.012;24.880;2023-05-11T09:09:46;99307.06;;;17.26;55.68
5905;BME280;2978;42.012;24.880;2023-05-11T09:12:12;99301.88;;;17.06;55.91
5905;BME280;2978;42.012;24.880;2023-05-11T09:14:38;99298.31;;;16.50;57.43
5905;BME280;2978;42.012;24.880;2023-05-11T09:17:04;99298.69;;;16.62;57.62
5905;BME280;2978;42.012;24.880;2023-05-11T09:19:29;99282.94;;;16.76;57.85
5905;BME280;2978;42.012;24.880;2023-05-11T09:21:55;99290.28;;;16.85;57.33
5905;BME280;2978;42.012;24.880;2023-05-11T09:24:22;99281.72;;;17.46;56.12
5905;BME280;2978;42.012;24.880;2023-05-11T09:26:48;99283.38;;;17.74;54.15
5905;BME280;2978;42.012;24.880;2023-05-11T09:29:14;99282.03;;;17.85;53.55
5905;BME280;2978;42.012;24.880;2023-05-11T09:31:45;99278.53;;;17.93;53.09
5905;BME280;2978;42.012;24.880;2023-05-11T09:34:21;99283.19;;;17.71;54.62
5905;BME280;2978;42.012;24.880;2023-05-11T09:36:49;99285.75;;;17.81;53.91
5905;BME280;2978;42.012;24.880;2023-05-11T09:39:15;99280.59;;;17.74;54.26
5905;BME280;2978;42.012;24.880;2023-05-11T09:41:43;99269.25;;;17.84;53.76
5905;BME280;2978;42.012;24.880;2023-05-11T09:44:11;99268.94;;;17.86;53.52
5905;BME280;2978;42.012;24.880;2023-05-11T09:46:39;99259.06;;;17.80;52.84
5905;BME280;2978;42.012;24.880;2023-05-11T09:49:05;99270.38;;;17.97;53.58
5905;BME280;2978;42.012;24.880;2023-05-11T09:51:33;99271.88;;;18.44;53.76
5905;BME280;2978;42.012;24.880;2023-05-11T09:53:59;99273.09;;;18.51;52.72
5905;BME280;2978;42.012;24.880;2023-05-11T13:46:59;99059.91;;;18.76;46.56
5905;BME280;2978;42.012;24.880;2023-05-11T13:49:25;99067.19;;;18.94;46.41
5905;BME280;2978;42.012;24.880;2023-05-11T13:51:51;99069.34;;;18.97;45.30
5905;BME280;2978;42.012;24.880;2023-05-11T13:54:17;99063.34;;;19.12;45.36
5905;BME280;2978;42.012;24.880;2023-05-11T13:56:42;99069.69;;;19.04;45.63
5905;BME280;2978;42.012;24.880;2023-05-11T13:59:08;99064.13;;;19.04;46.00
5905;BME280;2978;42.012;24.880;2023-05-11T14:01:33;99075.75;;;19.06;46.33
5905;BME280;2978;42.012;24.880;2023-05-11T14:03:59;99075.44;;;19.07;44.91
5905;BME280;2978;42.012;24.880;2023-05-11T14:06:24;99070.00;;;18.94;44.03
5905;BME280;2978;42.012;24.880;2023-05-11T14:08:50;99069.28;;;18.80;44.05
5905;BME280;2978;42.012;24.880;2023-05-11T14:11:16;99063.69;;;18.80;45.14
5905;BME280;2978;42.012;24.880;2023-05-11T14:13:41;99068.00;;;18.86;45.66
5905;BME280;2978;42.012;24.880;2023-05-11T14:16:07;99075.97;;;18.70;45.34
5905;BME280;2978;42.012;24.880;2023-05-11T14:18:34;99064.09;;;18.56;45.91
5905;BME280;2978;42.012;24.880;2023-05-11T14:21:00;99063.69;;;18.80;45.53
5905;BME280;2978;42.012;24.880;2023-05-11T14:23:25;99069.50;;;19.00;45.54
5905;BME280;2978;42.012;24.880;2023-05-11T14:25:50;99066.81;;;19.26;45.01
5905;BME280;2978;42.012;24.880;2023-05-11T14:28:16;99077.31;;;19.29;44.21
5905;BME280;2978;42.012;24.880;2023-05-11T14:30:41;99067.59;;;19.18;44.87
5905;BME280;2978;42.012;24.880;2023-05-11T14:33:07;99072.31;;;19.09;45.41
5905;BME280;2978;42.012;24.880;2023-05-11T14:35:32;99071.69;;;19.12;45.67
5905;BME280;2978;42.012;24.880;2023-05-11T14:37:58;99064.91;;;18.96;45.55
5905;BME280;2978;42.012;24.880;2023-05-11T14:40:24;99069.16;;;18.93;45.66
5905;BME280;2978;42.012;24.880;2023-05-11T14:42:49;99067.31;;;18.80;45.76
5905;BME280;2978;42.012;24.880;2023-05-11T14:45:15;99064.84;;;18.79;46.01
5905;BME280;2978;42.012;24.880;2023-05-11T14:47:40;99058.28;;;18.75;46.33
5905;BME280;2978;42.012;24.880;2023-05-11T14:50:07;99063.69;;;18.41;46.91
5905;BME280;2978;42.012;24.880;2023-05-11T14:52:32;99064.19;;;18.43;46.78
5905;BME280;2978;42.012;24.880;2023-05-11T14:54:58;99061.34;;;18.65;47.02
5905;BME280;2978;42.012;24.880;2023-05-11T14:57:23;99059.09;;;18.75;46.88
5905;BME280;2978;42.012;24.880;2023-05-11T14:59:49;99069.41;;;18.75;46.57
5905;BME280;2978;42.012;24.880;2023-05-11T15:02:14;99064.50;;;18.72;45.70
5905;BME280;2978;42.012;24.880;2023-05-11T15:04:44;99066.44;;;18.71;46.38
5905;BME280;2978;42.012;24.880;2023-05-11T15:07:10;99058.94;;;18.72;46.61
5905;BME280;2978;42.012;24.880;2023-05-11T15:09:36;99059.56;;;18.69;46.90
5905;BME280;2978;42.012;24.880;2023-05-11T15:12:01;99058.53;;;18.56;47.37
5905;BME280;2978;42.012;24.880;2023-05-11T15:14:28;99061.16;;;18.61;47.16
5905;BME280;2978;42.012;24.880;2023-05-11T15:16:54;99059.97;;;18.54;45.96
5905;BME280;2978;42.012;24.880;2023-05-11T15:19:23;99061.50;;;18.60;46.11
5905;BME280;2978;42.012;24.880;2023-05-11T15:21:48;99045.41;;;18.57;46.72
5905;BME280;2978;42.012;24.880;2023-05-11T15:24:14;99059.97;;;18.54;45.63
5905;BME280;2978;42.012;24.880;2023-05-11T15:26:39;99055.31;;;18.41;47.47
5905;BME280;2978;42.012;24.880;2023-05-11T15:29:05;99055.91;;;18.38;48.12
5905;BME280;2978;42.012;24.880;2023-05-11T15:31:30;99050.47;;;18.33;47.54
5905;BME280;2978;42.012;24.880;2023-05-11T15:33:56;99053.84;;;18.21;48.33
5905;BME280;2978;42.012;24.880;2023-05-11T15:36:21;99038.75;;;18.14;48.78
5905;BME280;2978;42.012;24.880;2023-05-11T15:38:47;99041.53;;;18.14;49.42
5905;BME280;2978;42.012;24.880;2023-05-11T15:41:12;99050.84;;;18.09;49.62
5905;BME280;2978;42.012;24.880;2023-05-11T15:43:38;99048.88;;;18.10;48.32
5905;BME280;2978;42.012;24.880;2023-05-11T15:46:03;99047.94;;;17.92;49.89
5905;BME280;2978;42.012;24.880;2023-05-11T15:48:29;99044.69;;;17.98;50.28
5905;BME280;2978;42.012;24.880;2023-05-11T15:50:57;99044.31;;;18.14;49.69
5905;BME280;2978;42.012;24.880;2023-05-11T15:53:23;99047.78;;;18.19;49.24
5905;BME280;2978;42.012;24.880;2023-05-11T15:55:48;99044.16;;;18.19;49.49
5905;BME280;2978;42.012;24.880;2023-05-11T15:58:18;99039.56;;;18.14;49.86
5905;BME280;2978;42.012;24.880;2023-05-11T16:00:43;99042.94;;;18.03;50.35
5905;BME280;2978;42.012;24.880;2023-05-11T16:03:09;99047.22;;;18.09;50.99
5905;BME280;2978;42.012;24.880;2023-05-11T16:05:34;99044.31;;;18.14;50.58
5905;BME280;2978;42.012;24.880;2023-05-11T16:08:02;99046.72;;;18.07;51.15
5905;BME280;2978;42.012;24.880;2023-05-11T16:10:27;99041.59;;;17.78;49.93
5905;BME280;2978;42.012;24.880;2023-05-11T16:12:53;99035.22;;;17.77;50.71
5905;BME280;2978;42.012;24.880;2023-05-11T16:15:18;99041.41;;;17.74;51.34
5905;BME280;2978;42.012;24.880;2023-05-11T16:17:44;99035.84;;;17.74;51.67
5905;BME280;2978;42.012;24.880;2023-05-11T16:20:10;99040.06;;;17.72;52.22
5905;BME280;2978;42.012;24.880;2023-05-11T16:22:36;99048.09;;;17.73;52.08
5905;BME280;2978;42.012;24.880;2023-05-11T16:25:03;99049.25;;;17.72;51.78
